sensor_id;sensor_type;location;lat;lon;timestamp;P1;durP1;ratioP1;P2;durP2;ratioP2
63693;SDS011;49839;51.798;10.954;2023-05-07T01:02:19;11.98;;;6.78;;
63693;SDS011;49839;51.798;10.954;2023-05-07T01:04:47;13.15;;;8.23;;
63693;SDS011;49839;51.798;10.954;2023-05-07T01:07:15;13.38;;;8.30;;
63693;SDS011;49839;51.798;10.954;2023-05-07T01:09:43;12.75;;;8.57;;
63693;SDS011;49839;51.798;10.954;2023-05-07T01:12:10;13.27;;;8.98;;
63693;SDS011;49839;51.798;10.954;2023-05-07T01:14:38;14.85;;;9.23;;
63693;SDS011;49839;51.798;10.954;2023-05-07T01:17:06;12.20;;;9.05;;
63693;SDS011;49839;51.798;10.954;2023-05-07T01:19:36;11.80;;;8.07;;
63693;SDS011;49839;51.798;10.954;2023-05-07T01:22:06;12.83;;;8.83;;
63693;SDS011;49839;51.798;10.954;2023-05-07T01:24:36;13.15;;;8.50;;
63693;SDS011;49839;51.798;10.954;2023-05-07T01:27:04;13.13;;;8.63;;
63693;SDS011;49839;51.798;10.954;2023-05-07T01:29:32;13.60;;;8.88;;
63693;SDS011;49839;51.798;10.954;2023-05-07T01:32:00;14.93;;;9.93;;
63693;SDS011;49839;51.798;10.954;2023-05-07T01:34:30;11.63;;;8.55;;
63693;SDS011;49839;51.798;10.954;2023-05-07T01:37:00;14.18;;;8.93;;
63693;SDS011;49839;51.798;10.954;2023-05-07T01:39:29;15.13;;;9.00;;
63693;SDS011;49839;51.798;10.954;2023-05-07T01:41:59;14.00;;;9.87;;
63693;SDS011;49839;51.798;10.954;2023-05-07T01:44:26;17.03;;;10.10;;
63693;SDS011;49839;51.798;10.954;2023-05-07T01:46:55;14.95;;;10.32;;
63693;SDS011;49839;51.798;10.954;2023-05-07T01:49:24;16.98;;;9.93;;
63693;SDS011;49839;51.798;10.954;2023-05-07T01:51:52;16.30;;;10.30;;
63693;SDS011;49839;51.798;10.954;2023-05-07T01:54:21;17.95;;;11.43;;
63693;SDS011;49839;51.798;10.954;2023-05-07T01:56:53;16.20;;;10.13;;
63693;SDS011;49839;51.798;10.954;2023-05-07T01:59:23;16.10;;;9.57;;
63693;SDS011;49839;51.798;10.954;2023-05-07T02:01:51;16.27;;;10.43;;
63693;SDS011;49839;51.798;10.954;2023-05-07T02:04:19;13.75;;;9.25;;
63693;SDS011;49839;51.798;10.954;2023-05-07T02:06:46;14.27;;;9.38;;
63693;SDS011;49839;51.798;10.954;2023-05-07T02:09:14;14.15;;;9.10;;
63693;SDS011;49839;51.798;10.954;2023-05-07T02:14:11;13.70;;;7.88;;
63693;SDS011;49839;51.798;10.954;2023-05-07T02:16:40;15.23;;;9.38;;
63693;SDS011;49839;51.798;10.954;2023-05-07T02:19:08;13.68;;;8.27;;
63693;SDS011;49839;51.798;10.954;2023-05-07T02:21:36;13.27;;;9.23;;
63693;SDS011;49839;51.798;10.954;2023-05-07T02:24:03;13.82;;;8.70;;
63693;SDS011;49839;51.798;10.954;2023-05-07T02:26:31;15.90;;;8.25;;
63693;SDS011;49839;51.798;10.954;2023-05-07T02:29:00;14.77;;;8.30;;
63693;SDS011;49839;51.798;10.954;2023-05-07T02:31:27;13.90;;;9.25;;
63693;SDS011;49839;51.798;10.954;2023-05-07T02:33:56;13.75;;;8.95;;
63693;SDS011;49839;51.798;10.954;2023-05-07T02:36:24;12.63;;;9.50;;
63693;SDS011;49839;51.798;10.954;2023-05-07T02:38:52;13.68;;;8.02;;
63693;SDS011;49839;51.798;10.954;2023-05-07T02:41:20;11.93;;;7.80;;
63693;SDS011;49839;51.798;10.954;2023-05-07T02:43:48;13.52;;;9.02;;
63693;SDS011;49839;51.798;10.954;2023-05-07T02:46:15;15.60;;;8.35;;
63693;SDS011;49839;51.798;10.954;2023-05-07T02:48:43;13.23;;;8.60;;
63693;SDS011;49839;51.798;10.954;2023-05-07T02:51:12;13.02;;;8.25;;
63693;SDS011;49839;51.798;10.954;2023-05-07T02:53:39;13.90;;;9.07;;
63693;SDS011;49839;51.798;10.954;2023-05-07T02:56:07;12.82;;;8.15;;
63693;SDS011;49839;51.798;10.954;2023-05-07T02:58:35;14.23;;;8.23;;
63693;SDS011;49839;51.798;10.954;2023-05-07T03:01:03;14.85;;;8.32;;
63693;SDS011;49839;51.798;10.954;2023-05-07T03:03:30;12.15;;;8.32;;
63693;SDS011;49839;51.798;10.954;2023-05-07T03:05:58;12.57;;;6.85;;
63693;SDS011;49839;51.798;10.954;2023-05-07T03:08:27;12.40;;;7.63;;
63693;SDS011;49839;51.798;10.954;2023-05-07T03:10:55;12.85;;;8.68;;
63693;SDS011;49839;51.798;10.954;2023-05-07T03:13:22;13.07;;;8.45;;
63693;SDS011;49839;51.798;10.954;2023-05-07T03:15:50;13.73;;;9.57;;
63693;SDS011;49839;51.798;10.954;2023-05-07T03:18:18;13.15;;;8.73;;
63693;SDS011;49839;51.798;10.954;2023-05-07T03:20:45;13.65;;;9.75;;
63693;SDS011;49839;51.798;10.954;2023-05-07T03:23:13;14.70;;;9.35;;
63693;SDS011;49839;51.798;10.954;2023-05-07T03:25:42;14.18;;;9.57;;
63693;SDS011;49839;51.798;10.954;2023-05-07T03:28:10;14.23;;;10.10;;
63693;SDS011;49839;51.798;10.954;2023-05-07T03:30:37;15.00;;;9.60;;
63693;SDS011;49839;51.798;10.954;2023-05-07T03:33:05;15.05;;;10.52;;
63693;SDS011;49839;51.798;10.954;2023-05-07T03:35:32;15.00;;;10.00;;
63693;SDS011;49839;51.798;10.954;2023-05-07T03:38:00;12.80;;;9.57;;
63693;SDS011;49839;51.798;10.954;2023-05-07T03:40:28;16.02;;;10.52;;
63693;SDS011;49839;51.798;10.954;2023-05-07T03:42:57;14.05;;;10.35;;
63693;SDS011;49839;51.798;10.954;2023-05-07T03:45:26;15.13;;;9.85;;
63693;SDS011;49839;51.798;10.954;2023-05-07T03:47:54;14.10;;;10.45;;
63693;SDS011;49839;51.798;10.954;2023-05-07T03:50:21;14.05;;;9.40;;
63693;SDS011;49839;51.798;10.954;2023-05-07T03:52:49;15.43;;;8.80;;
63693;SDS011;49839;51.798;10.954;2023-05-07T03:55:17;13.23;;;9.48;;
63693;SDS011;49839;51.798;10.954;2023-05-07T03:57:44;15.10;;;8.13;;
63693;SDS011;49839;51.798;10.954;2023-05-07T04:00:14;12.95;;;8.32;;
63693;SDS011;49839;51.798;10.954;2023-05-07T04:02:41;10.60;;;6.15;;
63693;SDS011;49839;51.798;10.954;2023-05-07T04:05:09;15.25;;;8.50;;
63693;SDS011;49839;51.798;10.954;2023-05-07T04:07:37;12.23;;;8.13;;
63693;SDS011;49839;51.798;10.954;2023-05-07T04:10:05;12.18;;;8.57;;
63693;SDS011;49839;51.798;10.954;2023-05-07T04:12:33;13.38;;;7.95;;
63693;SDS011;49839;51.798;10.954;2023-05-07T04:15:01;12.85;;;8.10;;
63693;SDS011;49839;51.798;10.954;2023-05-07T04:17:30;13.98;;;8.48;;
63693;SDS011;49839;51.798;10.954;2023-05-07T04:19:58;13.32;;;8.57;;
63693;SDS011;49839;51.798;10.954;2023-05-07T04:22:25;12.77;;;7.70;;
63693;SDS011;49839;51.798;10.954;2023-05-07T04:24:53;14.02;;;7.95;;
63693;SDS011;49839;51.798;10.954;2023-05-07T04:27:21;14.45;;;8.13;;
63693;SDS011;49839;51.798;10.954;2023-05-07T04:29:48;12.98;;;8.27;;
63693;SDS011;49839;51.798;10.954;2023-05-07T04:32:16;12.85;;;8.45;;
63693;SDS011;49839;51.798;10.954;2023-05-07T04:34:45;12.15;;;7.88;;
63693;SDS011;49839;51.798;10.954;2023-05-07T04:37:13;12.05;;;7.78;;
63693;SDS011;49839;51.798;10.954;2023-05-07T04:39:40;12.60;;;7.07;;
63693;SDS011;49839;51.798;10.954;2023-05-07T04:42:08;11.85;;;7.72;;
63693;SDS011;49839;51.798;10.954;2023-05-07T04:44:36;11.73;;;6.88;;
63693;SDS011;49839;51.798;10.954;2023-05-07T04:47:04;12.63;;;8.00;;
63693;SDS011;49839;51.798;10.954;2023-05-07T04:49:32;12.27;;;7.88;;
63693;SDS011;49839;51.798;10.954;2023-05-07T04:52:01;13.77;;;7.28;;
63693;SDS011;49839;51.798;10.954;2023-05-07T04:54:29;12.98;;;7.78;;
63693;SDS011;49839;51.798;10.954;2023-05-07T04:56:57;11.65;;;7.10;;
63693;SDS011;49839;51.798;10.954;2023-05-07T04:59:25;9.55;;;6.40;;
63693;SDS011;49839;51.798;10.954;2023-05-07T05:01:52;11.63;;;8.02;;
63693;SDS011;49839;51.798;10.954;2023-05-07T05:04:20;12.52;;;7.50;;
63693;SDS011;49839;51.798;10.954;2023-05-07T05:06:48;14.30;;;7.10;;
63693;SDS011;49839;51.798;10.954;2023-05-07T05:09:17;10.68;;;7.45;;
63693;SDS011;49839;51.798;10.954;2023-05-07T05:11:45;12.13;;;7.27;;
63693;SDS011;49839;51.798;10.954;2023-05-07T05:14:13;11.40;;;5.85;;
63693;SDS011;49839;51.798;10.954;2023-05-07T05:16:40;12.90;;;7.70;;
63693;SDS011;49839;51.798;10.954;2023-05-07T05:19:08;11.13;;;7.22;;
63693;SDS011;49839;51.798;10.954;2023-05-07T05:21:36;9.32;;;6.68;;
63693;SDS011;49839;51.798;10.954;2023-05-07T05:24:04;14.95;;;7.25;;
63693;SDS011;49839;51.798;10.954;2023-05-07T05:26:33;10.65;;;7.57;;
63693;SDS011;49839;51.798;10.954;2023-05-07T05:29:01;11.02;;;6.93;;
63693;SDS011;49839;51.798;10.954;2023-05-07T05:31:29;10.88;;;6.85;;
63693;SDS011;49839;51.798;10.954;2023-05-07T05:33:57;10.63;;;7.55;;
63693;SDS011;49839;51.798;10.954;2023-05-07T05:36:25;10.50;;;7.50;;
63693;SDS011;49839;51.798;10.954;2023-05-07T05:38:53;10.30;;;7.05;;
63693;SDS011;49839;51.798;10.954;2023-05-07T05:41:20;11.07;;;6.53;;
63693;SDS011;49839;51.798;10.954;2023-05-07T05:43:50;12.55;;;8.07;;
63693;SDS011;49839;51.798;10.954;2023-05-07T05:46:18;10.48;;;7.13;;
63693;SDS011;49839;51.798;10.954;2023-05-07T05:48:46;10.80;;;7.35;;
63693;SDS011;49839;51.798;10.954;2023-05-07T05:51:14;10.85;;;7.57;;
63693;SDS011;49839;51.798;10.954;2023-05-07T05:53:41;10.77;;;7.38;;
63693;SDS011;49839;51.798;10.954;2023-05-07T05:56:09;11.07;;;8.23;;
63693;SDS011;49839;51.798;10.954;2023-05-07T05:58:37;11.95;;;6.85;;
63693;SDS011;49839;51.798;10.954;2023-05-07T06:01:06;12.98;;;8.32;;
63693;SDS011;49839;51.798;10.954;2023-05-07T06:03:34;11.90;;;8.13;;
63693;SDS011;49839;51.798;10.954;2023-05-07T06:06:01;12.73;;;8.57;;
63693;SDS011;49839;51.798;10.954;2023-05-07T06:08:29;11.55;;;8.40;;
63693;SDS011;49839;51.798;10.954;2023-05-07T06:10:58;12.18;;;9.10;;
63693;SDS011;49839;51.798;10.954;2023-05-07T06:13:26;13.77;;;8.88;;
63693;SDS011;49839;51.798;10.954;2023-05-07T06:15:53;12.93;;;9.27;;
63693;SDS011;49839;51.798;10.954;2023-05-07T06:18:23;13.10;;;9.13;;
63693;SDS011;49839;51.798;10.954;2023-05-07T06:20:51;12.57;;;9.18;;
63693;SDS011;49839;51.798;10.954;2023-05-07T06:23:19;14.13;;;9.38;;
63693;SDS011;49839;51.798;10.954;2023-05-07T06:25:47;12.40;;;9.57;;
63693;SDS011;49839;51.798;10.954;2023-05-07T06:28:16;13.68;;;9.85;;
63693;SDS011;49839;51.798;10.954;2023-05-07T06:30:44;11.93;;;8.98;;
63693;SDS011;49839;51.798;10.954;2023-05-07T06:33:11;13.38;;;9.48;;
63693;SDS011;49839;51.798;10.954;2023-05-07T06:35:40;12.65;;;9.57;;
63693;SDS011;49839;51.798;10.954;2023-05-07T06:38:08;11.57;;;8.02;;
63693;SDS011;49839;51.798;10.954;2023-05-07T06:40:37;15.30;;;8.85;;
63693;SDS011;49839;51.798;10.954;2023-05-07T06:43:04;11.50;;;7.85;;
63693;SDS011;49839;51.798;10.954;2023-05-07T06:45:32;9.63;;;6.85;;
63693;SDS011;49839;51.798;10.954;2023-05-07T06:48:00;18.35;;;8.73;;
63693;SDS011;49839;51.798;10.954;2023-05-07T06:50:28;12.07;;;8.30;;
63693;SDS011;49839;51.798;10.954;2023-05-07T06:52:56;12.93;;;9.05;;
63693;SDS011;49839;51.798;10.954;2023-05-07T06:55:25;13.70;;;9.15;;
63693;SDS011;49839;51.798;10.954;2023-05-07T06:57:52;12.45;;;8.68;;
63693;SDS011;49839;51.798;10.954;2023-05-07T07:00:20;14.18;;;9.35;;
63693;SDS011;49839;51.798;10.954;2023-05-07T07:02:48;10.40;;;7.53;;
63693;SDS011;49839;51.798;10.954;2023-05-07T07:05:16;12.20;;;8.85;;
63693;SDS011;49839;51.798;10.954;2023-05-07T07:07:43;12.00;;;8.18;;
63693;SDS011;49839;51.798;10.954;2023-05-07T07:10:20;11.68;;;7.72;;
63693;SDS011;49839;51.798;10.954;2023-05-07T07:12:48;10.98;;;7.78;;
63693;SDS011;49839;51.798;10.954;2023-05-07T07:15:19;11.82;;;8.52;;
63693;SDS011;49839;51.798;10.954;2023-05-07T07:17:48;12.38;;;8.98;;
63693;SDS011;49839;51.798;10.954;2023-05-07T07:20:16;10.63;;;7.55;;
63693;SDS011;49839;51.798;10.954;2023-05-07T07:22:43;12.07;;;7.85;;
63693;SDS011;49839;51.798;10.954;2023-05-07T07:25:11;12.25;;;8.45;;
63693;SDS011;49839;51.798;10.954;2023-05-07T07:27:40;14.88;;;9.80;;
63693;SDS011;49839;51.798;10.954;2023-05-07T07:30:08;13.20;;;9.00;;
63693;SDS011;49839;51.798;10.954;2023-05-07T07:32:36;14.13;;;10.00;;
63693;SDS011;49839;51.798;10.954;2023-05-07T07:35:05;12.27;;;9.68;;
63693;SDS011;49839;51.798;10.954;2023-05-07T07:37:33;13.23;;;8.53;;
63693;SDS011;49839;51.798;10.954;2023-05-07T07:40:01;12.43;;;8.95;;
63693;SDS011;49839;51.798;10.954;2023-05-07T07:42:29;14.75;;;10.82;;
63693;SDS011;49839;51.798;10.954;2023-05-07T07:44:58;13.48;;;9.23;;
63693;SDS011;49839;51.798;10.954;2023-05-07T07:47:26;13.20;;;9.05;;
63693;SDS011;49839;51.798;10.954;2023-05-07T07:49:54;14.73;;;10.70;;
63693;SDS011;49839;51.798;10.954;2023-05-07T07:52:22;13.82;;;10.55;;
63693;SDS011;49839;51.798;10.954;2023-05-07T07:54:49;13.60;;;9.98;;
63693;SDS011;49839;51.798;10.954;2023-05-07T07:57:17;15.30;;;10.38;;
63693;SDS011;49839;51.798;10.954;2023-05-07T07:59:45;13.60;;;8.93;;
63693;SDS011;49839;51.798;10.954;2023-05-07T08:02:14;14.88;;;10.38;;
63693;SDS011;49839;51.798;10.954;2023-05-07T08:04:42;14.48;;;10.23;;
63693;SDS011;49839;51.798;10.954;2023-05-07T08:07:10;11.80;;;7.07;;
63693;SDS011;49839;51.798;10.954;2023-05-07T08:09:38;11.57;;;8.70;;
63693;SDS011;49839;51.798;10.954;2023-05-07T08:12:06;13.52;;;8.57;;
63693;SDS011;49839;51.798;10.954;2023-05-07T08:14:34;11.60;;;8.10;;
63693;SDS011;49839;51.798;10.954;2023-05-07T08:17:02;13.43;;;8.98;;
63693;SDS011;49839;51.798;10.954;2023-05-07T08:19:31;12.63;;;8.95;;
63693;SDS011;49839;51.798;10.954;2023-05-07T08:21:59;9.63;;;5.83;;
63693;SDS011;49839;51.798;10.954;2023-05-07T08:24:26;11.82;;;8.27;;
63693;SDS011;49839;51.798;10.954;2023-05-07T08:26:54;14.45;;;8.45;;
63693;SDS011;49839;51.798;10.954;2023-05-07T08:29:22;10.13;;;6.63;;
63693;SDS011;49839;51.798;10.954;2023-05-07T08:31:49;13.10;;;9.70;;
63693;SDS011;49839;51.798;10.954;2023-05-07T08:34:17;12.32;;;8.32;;
63693;SDS011;49839;51.798;10.954;2023-05-07T08:36:46;11.75;;;8.63;;
63693;SDS011;49839;51.798;10.954;2023-05-07T08:39:15;12.73;;;9.23;;
63693;SDS011;49839;51.798;10.954;2023-05-07T08:41:43;12.02;;;9.02;;
63693;SDS011;49839;51.798;10.954;2023-05-07T08:44:12;11.20;;;8.75;;
63693;SDS011;49839;51.798;10.954;2023-05-07T08:46:41;11.50;;;7.63;;
63693;SDS011;49839;51.798;10.954;2023-05-07T08:49:09;10.68;;;7.00;;
63693;SDS011;49839;51.798;10.954;2023-05-07T08:51:37;10.65;;;7.85;;
63693;SDS011;49839;51.798;10.954;2023-05-07T08:54:07;11.93;;;7.47;;
63693;SDS011;49839;51.798;10.954;2023-05-07T08:56:36;10.65;;;7.53;;
63693;SDS011;49839;51.798;10.954;2023-05-07T08:59:04;10.18;;;7.40;;
63693;SDS011;49839;51.798;10.954;2023-05-07T09:01:32;9.73;;;7.30;;
63693;SDS011;49839;51.798;10.954;2023-05-07T09:04:02;9.20;;;6.03;;
63693;SDS011;49839;51.798;10.954;2023-05-07T09:06:30;9.48;;;7.25;;
63693;SDS011;49839;51.798;10.954;2023-05-07T09:08:59;9.57;;;6.95;;
63693;SDS011;49839;51.798;10.954;2023-05-07T09:11:32;11.38;;;8.00;;
63693;SDS011;49839;51.798;10.954;2023-05-07T09:14:00;8.75;;;6.63;;
63693;SDS011;49839;51.798;10.954;2023-05-07T09:16:29;10.68;;;7.20;;
63693;SDS011;49839;51.798;10.954;2023-05-07T09:18:58;10.40;;;7.43;;
63693;SDS011;49839;51.798;10.954;2023-05-07T09:21:27;9.48;;;6.85;;
63693;SDS011;49839;51.798;10.954;2023-05-07T09:23:55;9.85;;;7.00;;
63693;SDS011;49839;51.798;10.954;2023-05-07T09:26:23;9.90;;;7.32;;
63693;SDS011;49839;51.798;10.954;2023-05-07T09:28:52;11.02;;;6.82;;
63693;SDS011;49839;51.798;10.954;2023-05-07T09:31:20;10.07;;;6.93;;
63693;SDS011;49839;51.798;10.954;2023-05-07T09:33:49;9.70;;;6.63;;
63693;SDS011;49839;51.798;10.954;2023-05-07T09:36:17;12.68;;;6.75;;
63693;SDS011;49839;51.798;10.954;2023-05-07T09:38:45;8.68;;;5.35;;
63693;SDS011;49839;51.798;10.954;2023-05-07T09:41:13;7.63;;;5.32;;
63693;SDS011;49839;51.798;10.954;2023-05-07T09:43:41;7.85;;;4.88;;
63693;SDS011;49839;51.798;10.954;2023-05-07T09:46:11;7.80;;;5.28;;
63693;SDS011;49839;51.798;10.954;2023-05-07T09:48:41;8.43;;;5.10;;
63693;SDS011;49839;51.798;10.954;2023-05-07T09:51:12;7.15;;;4.88;;
63693;SDS011;49839;51.798;10.954;2023-05-07T09:53:48;7.40;;;4.80;;
63693;SDS011;49839;51.798;10.954;2023-05-07T09:56:18;8.45;;;4.88;;
63693;SDS011;49839;51.798;10.954;2023-05-07T09:58:47;9.80;;;5.30;;
63693;SDS011;49839;51.798;10.954;2023-05-07T10:01:19;8.82;;;5.47;;
63693;SDS011;49839;51.798;10.954;2023-05-07T10:03:48;8.18;;;5.43;;
63693;SDS011;49839;51.798;10.954;2023-05-07T10:06:17;6.97;;;5.50;;
63693;SDS011;49839;51.798;10.954;2023-05-07T10:08:46;9.48;;;5.45;;
63693;SDS011;49839;51.798;10.954;2023-05-07T10:11:15;7.97;;;5.45;;
63693;SDS011;49839;51.798;10.954;2023-05-07T10:13:43;8.45;;;5.32;;
63693;SDS011;49839;51.798;10.954;2023-05-07T10:18:43;7.40;;;5.10;;
63693;SDS011;49839;51.798;10.954;2023-05-07T10:21:11;11.30;;;5.20;;
63693;SDS011;49839;51.798;10.954;2023-05-07T10:23:44;7.93;;;4.72;;
63693;SDS011;49839;51.798;10.954;2023-05-07T10:28:44;8.55;;;5.72;;
63693;SDS011;49839;51.798;10.954;2023-05-07T10:31:18;8.38;;;5.82;;
63693;SDS011;49839;51.798;10.954;2023-05-07T10:34:03;10.77;;;6.13;;
63693;SDS011;49839;51.798;10.954;2023-05-07T10:36:37;8.02;;;6.25;;
63693;SDS011;49839;51.798;10.954;2023-05-07T10:39:05;11.35;;;6.78;;
63693;SDS011;49839;51.798;10.954;2023-05-07T10:41:33;9.43;;;7.20;;
63693;SDS011;49839;51.798;10.954;2023-05-07T10:44:01;9.68;;;7.60;;
63693;SDS011;49839;51.798;10.954;2023-05-07T10:46:29;9.45;;;6.35;;
63693;SDS011;49839;51.798;10.954;2023-05-07T10:51:40;10.43;;;6.97;;
63693;SDS011;49839;51.798;10.954;2023-05-07T10:54:21;8.50;;;6.32;;
63693;SDS011;49839;51.798;10.954;2023-05-07T10:56:50;11.98;;;7.07;;
63693;SDS011;49839;51.798;10.954;2023-05-07T11:02:07;9.27;;;6.85;;
63693;SDS011;49839;51.798;10.954;2023-05-07T11:04:38;9.57;;;6.93;;
63693;SDS011;49839;51.798;10.954;2023-05-07T11:07:12;9.40;;;7.18;;
63693;SDS011;49839;51.798;10.954;2023-05-07T11:09:54;8.25;;;5.82;;
63693;SDS011;49839;51.798;10.954;2023-05-07T11:15:38;8.38;;;6.18;;
63693;SDS011;49839;51.798;10.954;2023-05-07T11:18:11;9.20;;;6.93;;
63693;SDS011;49839;51.798;10.954;2023-05-07T11:20:50;9.00;;;7.25;;
63693;SDS011;49839;51.798;10.954;2023-05-07T11:26:23;7.55;;;5.72;;
63693;SDS011;49839;51.798;10.954;2023-05-07T11:28:52;7.18;;;5.45;;
63693;SDS011;49839;51.798;10.954;2023-05-07T11:31:21;7.95;;;5.00;;
63693;SDS011;49839;51.798;10.954;2023-05-07T11:36:20;7.30;;;5.60;;
63693;SDS011;49839;51.798;10.954;2023-05-07T11:38:49;7.38;;;4.82;;
63693;SDS011;49839;51.798;10.954;2023-05-07T11:41:16;8.82;;;5.55;;
63693;SDS011;49839;51.798;10.954;2023-05-07T11:43:58;7.22;;;5.40;;
63693;SDS011;49839;51.798;10.954;2023-05-07T11:46:27;9.25;;;6.13;;
63693;SDS011;49839;51.798;10.954;2023-05-07T11:48:56;7.83;;;5.97;;
63693;SDS011;49839;51.798;10.954;2023-05-07T11:51:25;8.18;;;6.20;;
63693;SDS011;49839;51.798;10.954;2023-05-07T11:53:56;7.95;;;6.45;;
63693;SDS011;49839;51.798;10.954;2023-05-07T11:56:23;9.02;;;6.80;;
63693;SDS011;49839;51.798;10.954;2023-05-07T11:58:51;7.30;;;5.80;;
63693;SDS011;49839;51.798;10.954;2023-05-07T12:01:18;10.68;;;7.00;;
63693;SDS011;49839;51.798;10.954;2023-05-07T12:03:46;9.50;;;6.50;;
63693;SDS011;49839;51.798;10.954;2023-05-07T12:06:14;11.55;;;7.40;;
63693;SDS011;49839;51.798;10.954;2023-05-07T12:08:44;9.23;;;7.15;;
63693;SDS011;49839;51.798;10.954;2023-05-07T12:11:14;9.52;;;7.20;;
63693;SDS011;49839;51.798;10.954;2023-05-07T12:13:44;11.93;;;7.57;;
63693;SDS011;49839;51.798;10.954;2023-05-07T12:16:12;9.45;;;6.85;;
63693;SDS011;49839;51.798;10.954;2023-05-07T12:18:40;10.45;;;7.22;;
63693;SDS011;49839;51.798;10.954;2023-05-07T12:21:08;10.57;;;8.18;;
63693;SDS011;49839;51.798;10.954;2023-05-07T12:23:37;11.93;;;7.93;;
63693;SDS011;49839;51.798;10.954;2023-05-07T12:26:07;11.35;;;7.35;;
63693;SDS011;49839;51.798;10.954;2023-05-07T12:28:36;10.48;;;7.90;;
63693;SDS011;49839;51.798;10.954;2023-05-07T12:31:05;10.80;;;8.43;;
63693;SDS011;49839;51.798;10.954;2023-05-07T12:33:34;13.52;;;8.23;;
63693;SDS011;49839;51.798;10.954;2023-05-07T12:36:03;10.77;;;8.45;;
63693;SDS011;49839;51.798;10.954;2023-05-07T12:38:37;12.73;;;9.02;;
63693;SDS011;49839;51.798;10.954;2023-05-07T12:41:08;9.27;;;7.35;;
63693;SDS011;49839;51.798;10.954;2023-05-07T12:43:36;9.20;;;6.40;;
63693;SDS011;49839;51.798;10.954;2023-05-07T12:46:06;11.80;;;9.27;;
63693;SDS011;49839;51.798;10.954;2023-05-07T12:48:36;9.25;;;6.93;;
63693;SDS011;49839;51.798;10.954;2023-05-07T12:53:32;12.50;;;8.50;;
63693;SDS011;49839;51.798;10.954;2023-05-07T12:56:00;11.27;;;8.55;;
63693;SDS011;49839;51.798;10.954;2023-05-07T12:58:29;11.45;;;8.45;;
63693;SDS011;49839;51.798;10.954;2023-05-07T13:00:59;10.10;;;7.90;;
63693;SDS011;49839;51.798;10.954;2023-05-07T13:03:28;11.77;;;8.43;;
63693;SDS011;49839;51.798;10.954;2023-05-07T13:05:57;12.00;;;8.93;;
63693;SDS011;49839;51.798;10.954;2023-05-07T13:08:28;10.00;;;7.55;;
63693;SDS011;49839;51.798;10.954;2023-05-07T13:10:58;11.77;;;9.07;;
63693;SDS011;49839;51.798;10.954;2023-05-07T13:13:30;12.45;;;8.27;;
63693;SDS011;49839;51.798;10.954;2023-05-07T13:15:59;9.63;;;7.03;;
63693;SDS011;49839;51.798;10.954;2023-05-07T13:18:28;11.15;;;8.10;;
63693;SDS011;49839;51.798;10.954;2023-05-07T13:20:57;10.45;;;7.95;;
63693;SDS011;49839;51.798;10.954;2023-05-07T13:23:25;11.80;;;8.93;;
63693;SDS011;49839;51.798;10.954;2023-05-07T13:25:54;11.82;;;8.88;;
63693;SDS011;49839;51.798;10.954;2023-05-07T13:28:22;8.95;;;7.35;;
63693;SDS011;49839;51.798;10.954;2023-05-07T13:30:52;11.45;;;8.95;;
63693;SDS011;49839;51.798;10.954;2023-05-07T13:33:20;9.50;;;7.32;;
63693;SDS011;49839;51.798;10.954;2023-05-07T13:35:48;11.27;;;8.93;;
63693;SDS011;49839;51.798;10.954;2023-05-07T13:38:16;10.48;;;8.52;;
63693;SDS011;49839;51.798;10.954;2023-05-07T13:40:44;11.05;;;7.75;;
63693;SDS011;49839;51.798;10.954;2023-05-07T13:43:14;12.70;;;9.70;;
63693;SDS011;49839;51.798;10.954;2023-05-07T13:45:43;11.88;;;9.77;;
63693;SDS011;49839;51.798;10.954;2023-05-07T13:48:12;12.68;;;9.88;;
63693;SDS011;49839;51.798;10.954;2023-05-07T13:50:40;13.10;;;10.27;;
63693;SDS011;49839;51.798;10.954;2023-05-07T13:53:08;12.00;;;9.93;;
63693;SDS011;49839;51.798;10.954;2023-05-07T13:55:36;10.57;;;8.70;;
63693;SDS011;49839;51.798;10.954;2023-05-07T13:58:04;10.93;;;8.50;;
63693;SDS011;49839;51.798;10.954;2023-05-07T14:00:32;12.23;;;9.15;;
63693;SDS011;49839;51.798;10.954;2023-05-07T14:03:00;13.65;;;9.80;;
63693;SDS011;49839;51.798;10.954;2023-05-07T14:05:30;10.80;;;8.80;;
63693;SDS011;49839;51.798;10.954;2023-05-07T14:07:58;12.30;;;9.63;;
63693;SDS011;49839;51.798;10.954;2023-05-07T14:10:25;11.15;;;8.60;;
63693;SDS011;49839;51.798;10.954;2023-05-07T14:12:53;10.75;;;8.52;;
63693;SDS011;49839;51.798;10.954;2023-05-07T14:15:21;11.07;;;9.45;;
63693;SDS011;49839;51.798;10.954;2023-05-07T14:17:49;12.30;;;9.93;;
63693;SDS011;49839;51.798;10.954;2023-05-07T14:20:17;14.02;;;10.52;;
63693;SDS011;49839;51.798;10.954;2023-05-07T14:22:46;13.60;;;9.13;;
63693;SDS011;49839;51.798;10.954;2023-05-07T14:25:14;9.40;;;6.82;;
63693;SDS011;49839;51.798;10.954;2023-05-07T14:27:42;10.27;;;8.10;;
63693;SDS011;49839;51.798;10.954;2023-05-07T14:30:10;9.52;;;7.90;;
63693;SDS011;49839;51.798;10.954;2023-05-07T14:32:41;9.38;;;7.82;;
63693;SDS011;49839;51.798;10.954;2023-05-07T14:35:09;11.68;;;7.82;;
63693;SDS011;49839;51.798;10.954;2023-05-07T14:37:37;8.93;;;7.35;;
63693;SDS011;49839;51.798;10.954;2023-05-07T14:40:07;13.20;;;8.15;;
63693;SDS011;49839;51.798;10.954;2023-05-07T14:42:38;8.73;;;6.63;;
63693;SDS011;49839;51.798;10.954;2023-05-07T14:45:08;11.15;;;7.82;;
63693;SDS011;49839;51.798;10.954;2023-05-07T14:47:37;8.65;;;6.28;;
63693;SDS011;49839;51.798;10.954;2023-05-07T14:50:06;8.23;;;5.75;;
63693;SDS011;49839;51.798;10.954;2023-05-07T14:52:35;7.82;;;4.97;;
63693;SDS011;49839;51.798;10.954;2023-05-07T14:55:02;7.95;;;5.50;;
63693;SDS011;49839;51.798;10.954;2023-05-07T14:57:32;9.52;;;5.65;;
63693;SDS011;49839;51.798;10.954;2023-05-07T15:00:01;6.85;;;4.97;;
63693;SDS011;49839;51.798;10.954;2023-05-07T15:02:31;6.93;;;5.07;;
63693;SDS011;49839;51.798;10.954;2023-05-07T15:04:59;6.43;;;5.40;;
63693;SDS011;49839;51.798;10.954;2023-05-07T15:07:27;7.05;;;5.20;;
63693;SDS011;49839;51.798;10.954;2023-05-07T15:09:55;9.32;;;6.10;;
63693;SDS011;49839;51.798;10.954;2023-05-07T15:12:23;8.52;;;5.70;;
63693;SDS011;49839;51.798;10.954;2023-05-07T15:14:52;9.65;;;7.40;;
63693;SDS011;49839;51.798;10.954;2023-05-07T15:17:20;10.50;;;7.40;;
63693;SDS011;49839;51.798;10.954;2023-05-07T15:19:50;7.65;;;6.45;;
63693;SDS011;49839;51.798;10.954;2023-05-07T15:22:19;9.90;;;7.32;;
63693;SDS011;49839;51.798;10.954;2023-05-07T15:24:48;9.93;;;7.18;;
63693;SDS011;49839;51.798;10.954;2023-05-07T15:27:16;9.52;;;6.40;;
63693;SDS011;49839;51.798;10.954;2023-05-07T15:29:43;10.20;;;6.85;;
63693;SDS011;49839;51.798;10.954;2023-05-07T15:32:13;9.73;;;6.60;;
63693;SDS011;49839;51.798;10.954;2023-05-07T15:34:41;7.18;;;5.07;;
63693;SDS011;49839;51.798;10.954;2023-05-07T15:37:09;6.90;;;4.40;;
63693;SDS011;49839;51.798;10.954;2023-05-07T15:39:37;9.00;;;6.43;;
63693;SDS011;49839;51.798;10.954;2023-05-07T15:42:05;11.98;;;6.35;;
63693;SDS011;49839;51.798;10.954;2023-05-07T15:44:35;8.68;;;6.22;;
63693;SDS011;49839;51.798;10.954;2023-05-07T15:47:03;9.18;;;6.90;;
63693;SDS011;49839;51.798;10.954;2023-05-07T15:49:35;8.57;;;6.18;;
63693;SDS011;49839;51.798;10.954;2023-05-07T15:52:03;9.15;;;5.95;;
63693;SDS011;49839;51.798;10.954;2023-05-07T15:54:33;8.27;;;5.97;;
63693;SDS011;49839;51.798;10.954;2023-05-07T15:57:00;9.95;;;5.10;;